»·PEaware :: N782S KSBP-KSMX

N782S :: KSBP-KSMX

FLIGHT INFORMATION

Flight Status: Arrived
Operator: Privately registered:
United States
More flights under this callsign
Pilot: Mike M. (16686)
Aircraft: Unknown
(T210)
More flights by this aircraft type
Origin: KSBP San Luis Co Regl
United States
Destination: KSMX Santa Maria Pub/Capt Hancock
United States
More flights between these airports :: More routes between these airports
Route: KSBP KSMX
File this flight plan on PilotEdge
Remarks:
Altitude:
(Current/Filed)
4,000ft
Speed:
(Current/Filed)
130kts
Departed: 27-Sep-17 10:01 PM
Arrived: 27-Sep-17 10:33 PM
Distance/Time
Traveled:
22nm/0:31
Distance/Time
To Go:
Arrived

Flight Plot

Page will automatically refresh every two minutes.


Map Options




Map Legend


Flown Route
Filed Route
Departure Airport
Arrival Airport
Navaid (VOR, NDB)
Fix

Horizontal Profiles

Position Reports

Time Latitude Longitude Heading Altitude Ground
Speed
27-Sep-17 21:41 35.238077 -120.638649 270 196ft 0kts
27-Sep-17 21:42 35.238077 -120.638649 270 196ft 0kts
27-Sep-17 21:43 35.238077 -120.638649 270 196ft 0kts
27-Sep-17 21:44 35.238077 -120.638649 270 196ft 0kts
27-Sep-17 21:45 35.238077 -120.638649 270 196ft 0kts
27-Sep-17 21:46 35.238077 -120.638649 270 196ft 0kts
27-Sep-17 21:47 35.238077 -120.638649 270 196ft 0kts
27-Sep-17 21:48 35.238077 -120.638649 270 196ft 0kts
27-Sep-17 21:49 35.238077 -120.638649 270 196ft 0kts
27-Sep-17 21:50 35.238077 -120.638649 270 196ft 0kts
27-Sep-17 21:51 35.238077 -120.638649 270 196ft 0kts
27-Sep-17 21:52 35.238077 -120.638649 270 196ft 0kts
27-Sep-17 21:53 35.238077 -120.638649 270 196ft 0kts
27-Sep-17 21:54 35.238077 -120.638649 270 196ft 0kts
27-Sep-17 21:55 35.238077 -120.638649 270 196ft 0kts
27-Sep-17 21:56 35.238077 -120.638649 270 196ft 0kts
27-Sep-17 21:57 35.238077 -120.638649 270 196ft 0kts
27-Sep-17 21:58 35.238077 -120.638649 270 196ft 0kts
27-Sep-17 21:59 35.237382 -120.639128 127 194ft 4kts
27-Sep-17 22:00 35.235612 -120.636079 124 206ft 10kts
27-Sep-17 22:01 35.234039 -120.633312 123 212ft 11kts
27-Sep-17 22:02 35.233182 -120.632185 275 213ft 0kts
27-Sep-17 22:03 35.233182 -120.632187 276 213ft 0kts
27-Sep-17 22:04 35.233253 -120.633809 300 209ft 24kts
27-Sep-17 22:05 35.246628 -120.656736 309 971ft 98kts
27-Sep-17 22:06 35.232451 -120.663225 125 1226ft 129kts
27-Sep-17 22:07 35.209383 -120.629639 144 1305ft 133kts
27-Sep-17 22:08 35.175311 -120.616914 171 2422ft 127kts
27-Sep-17 22:09 35.141208 -120.602392 150 3421ft 132kts
27-Sep-17 22:10 35.107114 -120.586591 168 3735ft 133kts
27-Sep-17 22:11 35.070719 -120.578875 174 3683ft 132kts
27-Sep-17 22:12 35.034404 -120.578358 182 3629ft 131kts
27-Sep-17 22:13 34.998884 -120.559129 101 3507ft 132kts
27-Sep-17 22:14 35.015210 -120.534674 350 3426ft 131kts
27-Sep-17 22:15 35.020169 -120.544633 77 3332ft 134kts
27-Sep-17 22:16 35.050949 -120.550169 334 3540ft 118kts
27-Sep-17 22:17 35.080295 -120.569057 346 3790ft 122kts
27-Sep-17 22:18 35.075604 -120.562736 288 4001ft 126kts
27-Sep-17 22:19 35.103432 -120.568403 39 4222ft 104kts
27-Sep-17 22:20 35.122113 -120.547427 38 4199ft 77kts
27-Sep-17 22:21 35.135711 -120.532685 33 3890ft 64kts
27-Sep-17 22:22 35.142436 -120.510468 161 3743ft 93kts
27-Sep-17 22:23 35.119671 -120.514558 195 3651ft 66kts
27-Sep-17 22:24 35.097885 -120.528199 209 3229ft 110kts
27-Sep-17 22:25 35.070989 -120.547439 212 4028ft 115kts
27-Sep-17 22:26 35.044108 -120.568831 214 4059ft 95kts
27-Sep-17 22:27 35.039278 -120.583430 44 3930ft 69kts
27-Sep-17 22:28 35.043680 -120.557918 76 4060ft 102kts
27-Sep-17 22:29 35.052261 -120.524830 38 3857ft 105kts
27-Sep-17 22:30 35.054101 -120.547917 207 3340ft 119kts
27-Sep-17 22:31 35.022621 -120.545501 166 2861ft 112kts
27-Sep-17 22:32 34.992979 -120.536616 165 2778ft 110kts
27-Sep-17 22:33 34.963424 -120.527505 158 2638ft 112kts
27-Sep-17 22:34 34.943409 -120.501970 156 1656ft 103kts
27-Sep-17 22:35 34.923791 -120.483000 134 815ft 79kts
27-Sep-17 22:36 34.908248 -120.464234 133 303ft 73kts
27-Sep-17 22:37 34.899612 -120.453537 80 265ft 10kts
27-Sep-17 22:38 34.900858 -120.453094 28 265ft 5kts
27-Sep-17 22:39 34.901172 -120.451968 93 265ft 0kts
27-Sep-17 22:40 34.901172 -120.451968 93 265ft 0kts
27-Sep-17 22:41 34.901172 -120.451968 93 265ft 0kts

Navigation Log

Ident Type
1. KSBP Airport
2. KSMX Airport